sensor_id;sensor_type;location;lat;lon;timestamp;temperature;humidity
17726;DHT22;8983;53.156;17.960;2022-08-25T00:01:50;22.90;99.90
17726;DHT22;8983;53.156;17.960;2022-08-25T00:04:20;22.90;99.90
17726;DHT22;8983;53.156;17.960;2022-08-25T00:06:48;22.80;99.90
17726;DHT22;8983;53.156;17.960;2022-08-25T00:09:20;22.80;99.90
17726;DHT22;8983;53.156;17.960;2022-08-25T00:11:49;22.80;99.90
17726;DHT22;8983;53.156;17.960;2022-08-25T00:14:20;22.70;99.90
17726;DHT22;8983;53.156;17.960;2022-08-25T00:16:49;22.70;99.90
17726;DHT22;8983;53.156;17.960;2022-08-25T00:19:24;22.70;99.90
17726;DHT22;8983;53.156;17.960;2022-08-25T00:21:53;22.70;99.90
17726;DHT22;8983;53.156;17.960;2022-08-25T00:24:24;22.70;99.90
17726;DHT22;8983;53.156;17.960;2022-08-25T00:26:54;22.70;99.90
17726;DHT22;8983;53.156;17.960;2022-08-25T00:29:24;22.70;99.90
17726;DHT22;8983;53.156;17.960;2022-08-25T00:31:53;22.60;99.90
17726;DHT22;8983;53.156;17.960;2022-08-25T00:34:23;22.60;99.90
17726;DHT22;8983;53.156;17.960;2022-08-25T00:36:52;22.60;99.90
17726;DHT22;8983;53.156;17.960;2022-08-25T00:39:23;22.60;99.90
17726;DHT22;8983;53.156;17.960;2022-08-25T00:41:53;22.60;99.90
17726;DHT22;8983;53.156;17.960;2022-08-25T00:44:23;22.70;99.90
17726;DHT22;8983;53.156;17.960;2022-08-25T00:46:54;22.70;99.90
17726;DHT22;8983;53.156;17.960;2022-08-25T00:49:25;22.80;99.90
17726;DHT22;8983;53.156;17.960;2022-08-25T00:51:58;22.70;99.90
17726;DHT22;8983;53.156;17.960;2022-08-25T00:54:31;22.70;99.90
17726;DHT22;8983;53.156;17.960;2022-08-25T00:57:01;22.60;99.90
17726;DHT22;8983;53.156;17.960;2022-08-25T00:59:29;22.60;99.90
17726;DHT22;8983;53.156;17.960;2022-08-25T01:01:59;22.60;99.90
17726;DHT22;8983;53.156;17.960;2022-08-25T01:04:28;22.60;99.90
17726;DHT22;8983;53.156;17.960;2022-08-25T01:06:56;22.60;99.90
17726;DHT22;8983;53.156;17.960;2022-08-25T01:09:27;22.60;99.90
17726;DHT22;8983;53.156;17.960;2022-08-25T01:11:57;22.60;99.90
17726;DHT22;8983;53.156;17.960;2022-08-25T01:14:27;22.70;99.90
17726;DHT22;8983;53.156;17.960;2022-08-25T01:16:57;22.70;99.90
17726;DHT22;8983;53.156;17.960;2022-08-25T01:19:27;22.80;99.90
17726;DHT22;8983;53.156;17.960;2022-08-25T01:21:57;22.80;99.90
17726;DHT22;8983;53.156;17.960;2022-08-25T01:24:30;22.80;99.90
17726;DHT22;8983;53.156;17.960;2022-08-25T01:26:59;22.80;99.90
17726;DHT22;8983;53.156;17.960;2022-08-25T01:29:28;22.80;99.90
17726;DHT22;8983;53.156;17.960;2022-08-25T01:31:58;22.90;99.90
17726;DHT22;8983;53.156;17.960;2022-08-25T01:34:28;22.80;99.90
17726;DHT22;8983;53.156;17.960;2022-08-25T01:36:58;22.80;99.90
17726;DHT22;8983;53.156;17.960;2022-08-25T01:39:29;22.80;99.90
17726;DHT22;8983;53.156;17.960;2022-08-25T01:42:12;22.80;99.90
17726;DHT22;8983;53.156;17.960;2022-08-25T01:44:46;22.70;99.90
17726;DHT22;8983;53.156;17.960;2022-08-25T01:47:14;22.70;99.90
17726;DHT22;8983;53.156;17.960;2022-08-25T01:49:43;22.50;99.90
17726;DHT22;8983;53.156;17.960;2022-08-25T01:52:15;22.50;99.90
17726;DHT22;8983;53.156;17.960;2022-08-25T01:54:47;22.50;99.90
17726;DHT22;8983;53.156;17.960;2022-08-25T01:57:15;22.40;99.90
17726;DHT22;8983;53.156;17.960;2022-08-25T01:59:44;22.30;99.90
17726;DHT22;8983;53.156;17.960;2022-08-25T02:02:12;22.30;99.90
17726;DHT22;8983;53.156;17.960;2022-08-25T02:04:40;22.30;99.90
17726;DHT22;8983;53.156;17.960;2022-08-25T02:07:11;22.30;99.90
17726;DHT22;8983;53.156;17.960;2022-08-25T02:09:39;22.20;99.90
17726;DHT22;8983;53.156;17.960;2022-08-25T02:12:07;22.30;99.90
17726;DHT22;8983;53.156;17.960;2022-08-25T02:14:36;22.30;99.90
17726;DHT22;8983;53.156;17.960;2022-08-25T02:17:05;22.30;99.90
17726;DHT22;8983;53.156;17.960;2022-08-25T02:19:33;22.30;99.90
17726;DHT22;8983;53.156;17.960;2022-08-25T02:22:02;22.30;99.90
17726;DHT22;8983;53.156;17.960;2022-08-25T02:24:32;22.30;99.90
17726;DHT22;8983;53.156;17.960;2022-08-25T02:27:00;22.20;99.90
17726;DHT22;8983;53.156;17.960;2022-08-25T02:29:29;22.20;99.90
17726;DHT22;8983;53.156;17.960;2022-08-25T02:31:58;22.20;99.90
17726;DHT22;8983;53.156;17.960;2022-08-25T02:34:26;22.20;99.90
17726;DHT22;8983;53.156;17.960;2022-08-25T02:36:54;22.20;99.90
17726;DHT22;8983;53.156;17.960;2022-08-25T02:39:22;22.10;99.90
17726;DHT22;8983;53.156;17.960;2022-08-25T02:41:51;22.10;99.90
17726;DHT22;8983;53.156;17.960;2022-08-25T02:44:19;22.10;99.90
17726;DHT22;8983;53.156;17.960;2022-08-25T02:46:47;22.10;99.90
17726;DHT22;8983;53.156;17.960;2022-08-25T02:49:15;22.00;99.90
17726;DHT22;8983;53.156;17.960;2022-08-25T02:51:44;22.00;99.90
17726;DHT22;8983;53.156;17.960;2022-08-25T02:54:12;22.00;99.90
17726;DHT22;8983;53.156;17.960;2022-08-25T02:56:40;22.00;99.90
17726;DHT22;8983;53.156;17.960;2022-08-25T02:59:11;22.00;99.90
17726;DHT22;8983;53.156;17.960;2022-08-25T03:01:39;22.00;99.90
17726;DHT22;8983;53.156;17.960;2022-08-25T03:04:07;21.90;99.90
17726;DHT22;8983;53.156;17.960;2022-08-25T03:06:35;21.90;99.90
17726;DHT22;8983;53.156;17.960;2022-08-25T03:09:04;22.00;99.90
17726;DHT22;8983;53.156;17.960;2022-08-25T03:11:32;22.00;99.90
17726;DHT22;8983;53.156;17.960;2022-08-25T03:14:00;21.90;99.90
17726;DHT22;8983;53.156;17.960;2022-08-25T03:16:29;21.90;99.90
17726;DHT22;8983;53.156;17.960;2022-08-25T03:18:59;21.90;99.90
17726;DHT22;8983;53.156;17.960;2022-08-25T03:21:29;21.90;99.90
17726;DHT22;8983;53.156;17.960;2022-08-25T03:23:59;21.90;99.90
17726;DHT22;8983;53.156;17.960;2022-08-25T03:26:27;21.80;99.90
17726;DHT22;8983;53.156;17.960;2022-08-25T03:29:13;21.80;99.90
17726;DHT22;8983;53.156;17.960;2022-08-25T03:31:42;21.90;99.90
17726;DHT22;8983;53.156;17.960;2022-08-25T03:34:11;21.80;99.90
17726;DHT22;8983;53.156;17.960;2022-08-25T03:36:39;21.80;99.90
17726;DHT22;8983;53.156;17.960;2022-08-25T03:39:07;21.80;99.90
17726;DHT22;8983;53.156;17.960;2022-08-25T03:41:36;21.80;99.90
17726;DHT22;8983;53.156;17.960;2022-08-25T03:44:06;21.70;99.90
17726;DHT22;8983;53.156;17.960;2022-08-25T03:46:38;21.70;99.90
17726;DHT22;8983;53.156;17.960;2022-08-25T03:49:09;21.70;99.90
17726;DHT22;8983;53.156;17.960;2022-08-25T03:51:40;21.60;99.90
17726;DHT22;8983;53.156;17.960;2022-08-25T03:54:09;21.50;99.90
17726;DHT22;8983;53.156;17.960;2022-08-25T03:56:37;21.50;99.90
17726;DHT22;8983;53.156;17.960;2022-08-25T03:59:07;21.60;99.90
17726;DHT22;8983;53.156;17.960;2022-08-25T04:01:36;21.60;99.90
17726;DHT22;8983;53.156;17.960;2022-08-25T04:04:05;21.70;99.90
17726;DHT22;8983;53.156;17.960;2022-08-25T04:06:35;21.70;99.90
17726;DHT22;8983;53.156;17.960;2022-08-25T04:09:03;21.70;99.90
17726;DHT22;8983;53.156;17.960;2022-08-25T04:11:31;21.70;99.90
17726;DHT22;8983;53.156;17.960;2022-08-25T04:14:00;21.70;99.90
17726;DHT22;8983;53.156;17.960;2022-08-25T04:16:30;21.60;99.90
17726;DHT22;8983;53.156;17.960;2022-08-25T04:19:00;21.60;99.90
17726;DHT22;8983;53.156;17.960;2022-08-25T04:21:29;21.70;99.90
17726;DHT22;8983;53.156;17.960;2022-08-25T04:23:58;21.80;99.90
17726;DHT22;8983;53.156;17.960;2022-08-25T04:26:29;21.80;99.90
17726;DHT22;8983;53.156;17.960;2022-08-25T04:28:59;21.80;99.90
17726;DHT22;8983;53.156;17.960;2022-08-25T04:31:28;21.80;99.90
17726;DHT22;8983;53.156;17.960;2022-08-25T04:33:57;21.80;99.90
17726;DHT22;8983;53.156;17.960;2022-08-25T04:36:25;21.80;99.90
17726;DHT22;8983;53.156;17.960;2022-08-25T04:38:53;21.80;99.90
17726;DHT22;8983;53.156;17.960;2022-08-25T04:41:23;21.90;99.90
17726;DHT22;8983;53.156;17.960;2022-08-25T04:43:51;21.90;99.90
17726;DHT22;8983;53.156;17.960;2022-08-25T04:46:23;21.80;99.90
17726;DHT22;8983;53.156;17.960;2022-08-25T04:48:52;21.90;99.90
17726;DHT22;8983;53.156;17.960;2022-08-25T04:51:23;21.90;99.90
17726;DHT22;8983;53.156;17.960;2022-08-25T04:53:51;22.00;99.90
17726;DHT22;8983;53.156;17.960;2022-08-25T04:56:22;22.00;99.90
17726;DHT22;8983;53.156;17.960;2022-08-25T04:58:52;22.00;99.90
17726;DHT22;8983;53.156;17.960;2022-08-25T05:01:23;22.00;99.90
17726;DHT22;8983;53.156;17.960;2022-08-25T05:03:53;22.00;99.90
17726;DHT22;8983;53.156;17.960;2022-08-25T05:06:22;22.10;99.90
17726;DHT22;8983;53.156;17.960;2022-08-25T05:08:51;22.10;99.90
17726;DHT22;8983;53.156;17.960;2022-08-25T05:11:19;22.10;99.90
17726;DHT22;8983;53.156;17.960;2022-08-25T05:13:52;22.20;99.90
17726;DHT22;8983;53.156;17.960;2022-08-25T05:16:22;22.20;99.90
17726;DHT22;8983;53.156;17.960;2022-08-25T05:18:51;22.20;99.90
17726;DHT22;8983;53.156;17.960;2022-08-25T05:21:21;22.30;99.90
17726;DHT22;8983;53.156;17.960;2022-08-25T05:23:52;22.30;99.90
17726;DHT22;8983;53.156;17.960;2022-08-25T05:26:23;22.40;99.90
17726;DHT22;8983;53.156;17.960;2022-08-25T05:28:54;22.40;99.90
17726;DHT22;8983;53.156;17.960;2022-08-25T05:31:24;22.40;99.90
17726;DHT22;8983;53.156;17.960;2022-08-25T05:33:53;22.40;99.90
17726;DHT22;8983;53.156;17.960;2022-08-25T05:36:22;22.40;99.90
17726;DHT22;8983;53.156;17.960;2022-08-25T05:38:50;22.40;99.90
17726;DHT22;8983;53.156;17.960;2022-08-25T05:41:19;22.40;99.90
17726;DHT22;8983;53.156;17.960;2022-08-25T05:43:48;22.40;99.90
17726;DHT22;8983;53.156;17.960;2022-08-25T05:46:18;22.50;99.90
17726;DHT22;8983;53.156;17.960;2022-08-25T05:48:47;22.50;99.90
17726;DHT22;8983;53.156;17.960;2022-08-25T05:51:16;22.50;99.90
17726;DHT22;8983;53.156;17.960;2022-08-25T05:53:46;22.50;99.90
17726;DHT22;8983;53.156;17.960;2022-08-25T05:56:15;22.60;99.90
17726;DHT22;8983;53.156;17.960;2022-08-25T05:58:44;22.70;99.90
17726;DHT22;8983;53.156;17.960;2022-08-25T06:01:25;22.70;99.90
17726;DHT22;8983;53.156;17.960;2022-08-25T06:04:11;22.80;99.90
17726;DHT22;8983;53.156;17.960;2022-08-25T06:06:39;22.80;99.90
17726;DHT22;8983;53.156;17.960;2022-08-25T06:09:08;22.90;99.90
17726;DHT22;8983;53.156;17.960;2022-08-25T06:11:37;22.90;99.90
17726;DHT22;8983;53.156;17.960;2022-08-25T06:14:06;22.90;99.90
17726;DHT22;8983;53.156;17.960;2022-08-25T06:16:35;22.90;99.90
17726;DHT22;8983;53.156;17.960;2022-08-25T06:19:05;22.90;99.90
17726;DHT22;8983;53.156;17.960;2022-08-25T06:21:34;22.90;99.90
17726;DHT22;8983;53.156;17.960;2022-08-25T06:24:05;23.00;99.90
17726;DHT22;8983;53.156;17.960;2022-08-25T06:26:39;23.00;99.90
17726;DHT22;8983;53.156;17.960;2022-08-25T06:29:07;23.10;99.90
17726;DHT22;8983;53.156;17.960;2022-08-25T06:31:36;23.00;99.90
17726;DHT22;8983;53.156;17.960;2022-08-25T06:34:05;23.00;99.90
17726;DHT22;8983;53.156;17.960;2022-08-25T06:36:33;23.00;99.90
17726;DHT22;8983;53.156;17.960;2022-08-25T06:39:01;23.00;99.90
17726;DHT22;8983;53.156;17.960;2022-08-25T06:41:29;23.00;99.90
17726;DHT22;8983;53.156;17.960;2022-08-25T06:44:03;23.10;99.90
17726;DHT22;8983;53.156;17.960;2022-08-25T06:46:31;23.20;99.90
17726;DHT22;8983;53.156;17.960;2022-08-25T06:49:04;23.20;99.90
17726;DHT22;8983;53.156;17.960;2022-08-25T06:51:33;23.20;99.90
17726;DHT22;8983;53.156;17.960;2022-08-25T06:54:03;23.20;99.90
17726;DHT22;8983;53.156;17.960;2022-08-25T06:56:32;23.20;99.90
17726;DHT22;8983;53.156;17.960;2022-08-25T06:59:00;23.20;99.90
17726;DHT22;8983;53.156;17.960;2022-08-25T07:01:29;23.30;99.90
17726;DHT22;8983;53.156;17.960;2022-08-25T07:03:59;23.50;99.90
17726;DHT22;8983;53.156;17.960;2022-08-25T07:06:31;23.60;99.90
17726;DHT22;8983;53.156;17.960;2022-08-25T07:09:02;23.70;99.90
17726;DHT22;8983;53.156;17.960;2022-08-25T07:11:32;23.70;99.90
17726;DHT22;8983;53.156;17.960;2022-08-25T07:14:02;23.70;99.90
17726;DHT22;8983;53.156;17.960;2022-08-25T07:16:31;23.80;99.90
17726;DHT22;8983;53.156;17.960;2022-08-25T07:19:00;23.80;99.90
17726;DHT22;8983;53.156;17.960;2022-08-25T07:21:31;23.90;99.90
17726;DHT22;8983;53.156;17.960;2022-08-25T07:24:03;24.00;99.90
17726;DHT22;8983;53.156;17.960;2022-08-25T07:26:32;24.10;99.90
17726;DHT22;8983;53.156;17.960;2022-08-25T07:29:07;24.00;99.90
17726;DHT22;8983;53.156;17.960;2022-08-25T07:31:36;24.10;99.90
17726;DHT22;8983;53.156;17.960;2022-08-25T07:34:05;24.10;99.90
17726;DHT22;8983;53.156;17.960;2022-08-25T07:36:53;24.10;99.90
17726;DHT22;8983;53.156;17.960;2022-08-25T07:39:22;24.10;99.90
17726;DHT22;8983;53.156;17.960;2022-08-25T07:41:51;24.20;99.90
17726;DHT22;8983;53.156;17.960;2022-08-25T07:44:19;24.20;99.90
17726;DHT22;8983;53.156;17.960;2022-08-25T07:46:48;24.30;99.90
17726;DHT22;8983;53.156;17.960;2022-08-25T07:49:17;24.30;99.90
17726;DHT22;8983;53.156;17.960;2022-08-25T07:51:49;24.40;99.90
17726;DHT22;8983;53.156;17.960;2022-08-25T07:54:34;24.50;99.90
17726;DHT22;8983;53.156;17.960;2022-08-25T07:57:05;24.50;99.90
17726;DHT22;8983;53.156;17.960;2022-08-25T07:59:34;24.60;99.90
17726;DHT22;8983;53.156;17.960;2022-08-25T08:02:06;24.60;99.90
17726;DHT22;8983;53.156;17.960;2022-08-25T08:04:45;24.60;99.90
17726;DHT22;8983;53.156;17.960;2022-08-25T08:07:15;24.60;99.90
17726;DHT22;8983;53.156;17.960;2022-08-25T08:09:46;24.70;99.90
17726;DHT22;8983;53.156;17.960;2022-08-25T08:12:32;24.70;99.90
17726;DHT22;8983;53.156;17.960;2022-08-25T08:15:02;24.80;99.90
17726;DHT22;8983;53.156;17.960;2022-08-25T08:17:37;24.80;99.90
17726;DHT22;8983;53.156;17.960;2022-08-25T08:20:07;24.80;99.90
17726;DHT22;8983;53.156;17.960;2022-08-25T08:22:37;24.80;99.90
17726;DHT22;8983;53.156;17.960;2022-08-25T08:25:10;24.90;99.90
17726;DHT22;8983;53.156;17.960;2022-08-25T08:27:44;24.90;99.90
17726;DHT22;8983;53.156;17.960;2022-08-25T08:30:13;25.00;99.90
17726;DHT22;8983;53.156;17.960;2022-08-25T08:32:41;25.10;99.90
17726;DHT22;8983;53.156;17.960;2022-08-25T08:35:29;25.30;99.90
17726;DHT22;8983;53.156;17.960;2022-08-25T08:37:57;25.40;99.90
17726;DHT22;8983;53.156;17.960;2022-08-25T08:40:28;25.50;99.90
17726;DHT22;8983;53.156;17.960;2022-08-25T08:43:04;25.50;99.90
17726;DHT22;8983;53.156;17.960;2022-08-25T08:45:47;25.50;99.90
17726;DHT22;8983;53.156;17.960;2022-08-25T08:48:25;25.60;99.90
17726;DHT22;8983;53.156;17.960;2022-08-25T08:51:11;25.60;99.90
17726;DHT22;8983;53.156;17.960;2022-08-25T08:53:44;25.70;99.90
17726;DHT22;8983;53.156;17.960;2022-08-25T08:56:20;25.70;99.90
17726;DHT22;8983;53.156;17.960;2022-08-25T08:58:58;25.70;99.90
17726;DHT22;8983;53.156;17.960;2022-08-25T09:01:34;25.70;99.90
17726;DHT22;8983;53.156;17.960;2022-08-25T09:04:08;25.70;99.90
17726;DHT22;8983;53.156;17.960;2022-08-25T09:06:41;25.80;99.90
17726;DHT22;8983;53.156;17.960;2022-08-25T09:09:12;25.90;99.90
17726;DHT22;8983;53.156;17.960;2022-08-25T09:11:55;26.00;99.90
17726;DHT22;8983;53.156;17.960;2022-08-25T09:14:44;26.20;99.90
17726;DHT22;8983;53.156;17.960;2022-08-25T09:17:33;26.30;99.90
17726;DHT22;8983;53.156;17.960;2022-08-25T09:20:27;26.40;99.90
17726;DHT22;8983;53.156;17.960;2022-08-25T09:23:02;26.40;99.90
17726;DHT22;8983;53.156;17.960;2022-08-25T09:25:41;26.50;99.90
17726;DHT22;8983;53.156;17.960;2022-08-25T09:28:27;26.50;99.90
17726;DHT22;8983;53.156;17.960;2022-08-25T09:30:59;26.60;99.90
17726;DHT22;8983;53.156;17.960;2022-08-25T09:33:29;26.60;99.90
17726;DHT22;8983;53.156;17.960;2022-08-25T09:36:03;26.70;99.90
17726;DHT22;8983;53.156;17.960;2022-08-25T09:38:35;26.80;99.90
17726;DHT22;8983;53.156;17.960;2022-08-25T09:41:05;26.90;99.90
17726;DHT22;8983;53.156;17.960;2022-08-25T09:43:36;27.10;99.90
17726;DHT22;8983;53.156;17.960;2022-08-25T09:46:11;27.30;99.90
17726;DHT22;8983;53.156;17.960;2022-08-25T09:48:45;27.40;99.90
17726;DHT22;8983;53.156;17.960;2022-08-25T09:51:25;27.60;99.90
17726;DHT22;8983;53.156;17.960;2022-08-25T09:53:56;27.80;99.90
17726;DHT22;8983;53.156;17.960;2022-08-25T09:56:27;28.10;99.90
17726;DHT22;8983;53.156;17.960;2022-08-25T09:59:19;28.40;99.90
17726;DHT22;8983;53.156;17.960;2022-08-25T10:02:02;28.70;99.90
17726;DHT22;8983;53.156;17.960;2022-08-25T10:04:33;28.90;99.90
17726;DHT22;8983;53.156;17.960;2022-08-25T10:07:05;29.20;99.90
17726;DHT22;8983;53.156;17.960;2022-08-25T10:09:52;29.50;99.90
17726;DHT22;8983;53.156;17.960;2022-08-25T10:12:24;29.90;99.90
17726;DHT22;8983;53.156;17.960;2022-08-25T10:14:58;30.30;99.90
17726;DHT22;8983;53.156;17.960;2022-08-25T10:17:27;30.50;99.90
17726;DHT22;8983;53.156;17.960;2022-08-25T10:20:15;30.70;99.90
17726;DHT22;8983;53.156;17.960;2022-08-25T10:22:46;30.80;99.90
17726;DHT22;8983;53.156;17.960;2022-08-25T10:25:23;30.80;99.90
17726;DHT22;8983;53.156;17.960;2022-08-25T10:28:07;31.00;99.90
17726;DHT22;8983;53.156;17.960;2022-08-25T10:30:50;31.40;99.90
17726;DHT22;8983;53.156;17.960;2022-08-25T10:33:29;31.80;99.90
17726;DHT22;8983;53.156;17.960;2022-08-25T10:36:05;32.00;99.90
17726;DHT22;8983;53.156;17.960;2022-08-25T10:38:37;32.20;99.90
17726;DHT22;8983;53.156;17.960;2022-08-25T10:41:27;32.40;99.90
17726;DHT22;8983;53.156;17.960;2022-08-25T10:44:08;32.70;99.50
17726;DHT22;8983;53.156;17.960;2022-08-25T10:47:22;32.90;98.50
17726;DHT22;8983;53.156;17.960;2022-08-25T10:49:55;32.60;97.80
17726;DHT22;8983;53.156;17.960;2022-08-25T10:52:37;32.10;98.10
17726;DHT22;8983;53.156;17.960;2022-08-25T10:55:15;31.80;98.50
17726;DHT22;8983;53.156;17.960;2022-08-25T10:57:50;31.50;98.80
17726;DHT22;8983;53.156;17.960;2022-08-25T11:00:23;31.40;99.00
17726;DHT22;8983;53.156;17.960;2022-08-25T11:03:15;31.30;98.80
17726;DHT22;8983;53.156;17.960;2022-08-25T11:05:47;31.40;98.90
17726;DHT22;8983;53.156;17.960;2022-08-25T11:08:23;31.80;98.90
17726;DHT22;8983;53.156;17.960;2022-08-25T11:10:58;32.50;98.00
17726;DHT22;8983;53.156;17.960;2022-08-25T11:13:39;33.20;97.10
17726;DHT22;8983;53.156;17.960;2022-08-25T11:16:11;33.80;96.00
17726;DHT22;8983;53.156;17.960;2022-08-25T11:18:56;34.10;95.30
17726;DHT22;8983;53.156;17.960;2022-08-25T11:21:31;34.10;94.40
17726;DHT22;8983;53.156;17.960;2022-08-25T11:24:09;34.10;94.40
17726;DHT22;8983;53.156;17.960;2022-08-25T11:26:43;34.40;93.40
17726;DHT22;8983;53.156;17.960;2022-08-25T11:29:16;34.40;92.60
17726;DHT22;8983;53.156;17.960;2022-08-25T11:31:48;34.30;92.10
17726;DHT22;8983;53.156;17.960;2022-08-25T11:34:21;34.20;91.90
17726;DHT22;8983;53.156;17.960;2022-08-25T11:36:52;34.00;91.90
17726;DHT22;8983;53.156;17.960;2022-08-25T11:39:34;33.80;92.10
17726;DHT22;8983;53.156;17.960;2022-08-25T11:42:16;33.60;92.50
17726;DHT22;8983;53.156;17.960;2022-08-25T11:44:53;33.90;92.60
17726;DHT22;8983;53.156;17.960;2022-08-25T11:47:55;34.40;92.30
17726;DHT22;8983;53.156;17.960;2022-08-25T11:50:30;34.80;91.40
17726;DHT22;8983;53.156;17.960;2022-08-25T11:53:16;35.20;90.70
17726;DHT22;8983;53.156;17.960;2022-08-25T11:55:55;35.50;90.00
17726;DHT22;8983;53.156;17.960;2022-08-25T11:58:43;35.80;88.90
17726;DHT22;8983;53.156;17.960;2022-08-25T12:04:15;35.90;85.90
17726;DHT22;8983;53.156;17.960;2022-08-25T12:07:20;35.80;84.90
17726;DHT22;8983;53.156;17.960;2022-08-25T12:10:16;35.70;84.00
17726;DHT22;8983;53.156;17.960;2022-08-25T12:13:04;35.70;83.20
17726;DHT22;8983;53.156;17.960;2022-08-25T12:15:58;35.80;82.70
17726;DHT22;8983;53.156;17.960;2022-08-25T12:18:40;35.60;82.60
17726;DHT22;8983;53.156;17.960;2022-08-25T12:24:22;35.50;82.10
17726;DHT22;8983;53.156;17.960;2022-08-25T12:26:55;35.40;81.80
17726;DHT22;8983;53.156;17.960;2022-08-25T12:29:29;35.40;81.80
17726;DHT22;8983;53.156;17.960;2022-08-25T12:32:26;35.20;81.60
17726;DHT22;8983;53.156;17.960;2022-08-25T12:35:12;34.90;82.00
17726;DHT22;8983;53.156;17.960;2022-08-25T12:37:57;34.70;83.10
17726;DHT22;8983;53.156;17.960;2022-08-25T12:40:31;35.00;83.80
17726;DHT22;8983;53.156;17.960;2022-08-25T12:43:04;35.30;83.10
17726;DHT22;8983;53.156;17.960;2022-08-25T12:45:39;35.60;82.20
17726;DHT22;8983;53.156;17.960;2022-08-25T12:51:26;36.30;79.70
17726;DHT22;8983;53.156;17.960;2022-08-25T12:54:00;36.20;78.80
17726;DHT22;8983;53.156;17.960;2022-08-25T12:56:45;36.30;78.30
17726;DHT22;8983;53.156;17.960;2022-08-25T12:59:17;36.40;77.50
17726;DHT22;8983;53.156;17.960;2022-08-25T13:02:03;36.40;77.50
17726;DHT22;8983;53.156;17.960;2022-08-25T13:05:02;36.50;75.90
17726;DHT22;8983;53.156;17.960;2022-08-25T13:07:54;36.60;75.20
17726;DHT22;8983;53.156;17.960;2022-08-25T13:10:39;36.50;74.70
17726;DHT22;8983;53.156;17.960;2022-08-25T13:13:16;36.60;74.80
17726;DHT22;8983;53.156;17.960;2022-08-25T13:15:58;36.70;74.30
17726;DHT22;8983;53.156;17.960;2022-08-25T13:18:28;36.70;73.60
17726;DHT22;8983;53.156;17.960;2022-08-25T13:21:04;36.70;73.50
17726;DHT22;8983;53.156;17.960;2022-08-25T13:23:36;36.90;72.90
17726;DHT22;8983;53.156;17.960;2022-08-25T13:26:05;37.20;71.70
17726;DHT22;8983;53.156;17.960;2022-08-25T13:28:37;37.40;71.00
17726;DHT22;8983;53.156;17.960;2022-08-25T13:31:14;37.60;70.60
17726;DHT22;8983;53.156;17.960;2022-08-25T13:33:55;37.80;69.50
17726;DHT22;8983;53.156;17.960;2022-08-25T13:36:25;37.90;68.60
17726;DHT22;8983;53.156;17.960;2022-08-25T13:39:21;37.80;68.90
17726;DHT22;8983;53.156;17.960;2022-08-25T13:42:13;37.80;68.70
17726;DHT22;8983;53.156;17.960;2022-08-25T13:44:43;37.80;68.00
17726;DHT22;8983;53.156;17.960;2022-08-25T13:47:31;37.80;68.00
17726;DHT22;8983;53.156;17.960;2022-08-25T13:50:21;37.80;68.20
17726;DHT22;8983;53.156;17.960;2022-08-25T13:52:55;37.90;67.80
17726;DHT22;8983;53.156;17.960;2022-08-25T13:55:27;37.90;67.80
17726;DHT22;8983;53.156;17.960;2022-08-25T13:58:05;37.70;67.60
17726;DHT22;8983;53.156;17.960;2022-08-25T14:00:45;37.20;67.60
17726;DHT22;8983;53.156;17.960;2022-08-25T14:03:28;36.80;68.10
17726;DHT22;8983;53.156;17.960;2022-08-25T14:06:08;36.60;68.10
17726;DHT22;8983;53.156;17.960;2022-08-25T14:08:39;36.60;68.50
17726;DHT22;8983;53.156;17.960;2022-08-25T14:11:09;36.60;67.90
17726;DHT22;8983;53.156;17.960;2022-08-25T14:13:41;36.60;67.40
17726;DHT22;8983;53.156;17.960;2022-08-25T14:16:14;36.60;67.60
17726;DHT22;8983;53.156;17.960;2022-08-25T14:18:48;36.60;67.70
17726;DHT22;8983;53.156;17.960;2022-08-25T14:21:19;36.60;67.20
17726;DHT22;8983;53.156;17.960;2022-08-25T14:23:48;36.60;67.20
17726;DHT22;8983;53.156;17.960;2022-08-25T14:26:16;36.70;67.30
17726;DHT22;8983;53.156;17.960;2022-08-25T14:28:45;36.80;66.90
17726;DHT22;8983;53.156;17.960;2022-08-25T14:31:24;36.90;66.70
17726;DHT22;8983;53.156;17.960;2022-08-25T14:33:57;37.00;67.00
17726;DHT22;8983;53.156;17.960;2022-08-25T14:36:28;37.00;67.00
17726;DHT22;8983;53.156;17.960;2022-08-25T14:38:56;37.10;66.60
17726;DHT22;8983;53.156;17.960;2022-08-25T14:41:26;37.30;66.10
17726;DHT22;8983;53.156;17.960;2022-08-25T14:43:54;37.30;65.60
17726;DHT22;8983;53.156;17.960;2022-08-25T14:46:26;37.10;65.50
17726;DHT22;8983;53.156;17.960;2022-08-25T14:48:56;37.10;65.60
17726;DHT22;8983;53.156;17.960;2022-08-25T14:51:26;37.00;65.70
17726;DHT22;8983;53.156;17.960;2022-08-25T14:53:59;36.90;65.40
17726;DHT22;8983;53.156;17.960;2022-08-25T14:56:28;36.90;66.60
17726;DHT22;8983;53.156;17.960;2022-08-25T14:58:57;37.00;65.50
17726;DHT22;8983;53.156;17.960;2022-08-25T15:01:27;37.20;65.70
17726;DHT22;8983;53.156;17.960;2022-08-25T15:04:00;37.40;65.50
17726;DHT22;8983;53.156;17.960;2022-08-25T15:06:30;37.60;65.20
17726;DHT22;8983;53.156;17.960;2022-08-25T15:08:58;37.50;64.90
17726;DHT22;8983;53.156;17.960;2022-08-25T15:11:38;37.60;65.00
17726;DHT22;8983;53.156;17.960;2022-08-25T15:14:08;37.70;64.50
17726;DHT22;8983;53.156;17.960;2022-08-25T15:16:41;38.00;64.10
17726;DHT22;8983;53.156;17.960;2022-08-25T15:19:12;38.10;63.80
17726;DHT22;8983;53.156;17.960;2022-08-25T15:21:43;38.20;63.80
17726;DHT22;8983;53.156;17.960;2022-08-25T15:24:12;38.10;63.90
17726;DHT22;8983;53.156;17.960;2022-08-25T15:26:46;37.90;64.30
17726;DHT22;8983;53.156;17.960;2022-08-25T15:29:21;37.50;64.90
17726;DHT22;8983;53.156;17.960;2022-08-25T15:31:51;37.10;65.90
17726;DHT22;8983;53.156;17.960;2022-08-25T15:34:20;36.60;66.90
17726;DHT22;8983;53.156;17.960;2022-08-25T15:36:48;36.10;68.00
17726;DHT22;8983;53.156;17.960;2022-08-25T15:39:17;35.70;69.00
17726;DHT22;8983;53.156;17.960;2022-08-25T15:41:45;35.40;70.00
17726;DHT22;8983;53.156;17.960;2022-08-25T15:44:18;35.40;70.30
17726;DHT22;8983;53.156;17.960;2022-08-25T15:46:53;35.60;70.40
17726;DHT22;8983;53.156;17.960;2022-08-25T15:49:22;35.90;70.20
17726;DHT22;8983;53.156;17.960;2022-08-25T15:51:51;36.00;69.80
17726;DHT22;8983;53.156;17.960;2022-08-25T15:54:20;36.10;69.80
17726;DHT22;8983;53.156;17.960;2022-08-25T15:56:49;36.10;69.90
17726;DHT22;8983;53.156;17.960;2022-08-25T15:59:18;36.10;70.00
17726;DHT22;8983;53.156;17.960;2022-08-25T16:01:47;36.20;70.20
17726;DHT22;8983;53.156;17.960;2022-08-25T16:04:21;36.30;70.00
17726;DHT22;8983;53.156;17.960;2022-08-25T16:06:50;36.40;69.50
17726;DHT22;8983;53.156;17.960;2022-08-25T16:09:19;36.20;69.50
17726;DHT22;8983;53.156;17.960;2022-08-25T16:11:49;36.10;69.80
17726;DHT22;8983;53.156;17.960;2022-08-25T16:14:23;35.90;70.10
17726;DHT22;8983;53.156;17.960;2022-08-25T16:16:51;35.80;70.60